createdAt,value
2018-12-24T00:01:10.576Z,94.90
2018-12-24T00:03:14.603Z,94.90
2018-12-24T00:05:18.672Z,95.10
2018-12-24T00:07:22.517Z,95.40
2018-12-24T00:09:26.446Z,95.30
2018-12-24T00:11:30.318Z,95.00
2018-12-24T00:13:36.155Z,95.40
2018-12-24T00:15:40.047Z,94.90
2018-12-24T00:17:45.374Z,95.50
2018-12-24T00:19:49.229Z,95.50
2018-12-24T00:21:53.173Z,95.10
2018-12-24T00:23:57.070Z,94.90
2018-12-24T00:26:00.979Z,95.30
2018-12-24T00:28:04.925Z,95.00
2018-12-24T00:30:08.910Z,95.40
2018-12-24T00:32:12.971Z,95.70
2018-12-24T00:34:16.879Z,95.70
2018-12-24T00:36:20.874Z,95.60
2018-12-24T00:38:24.832Z,95.10
2018-12-24T00:40:28.850Z,94.90
2018-12-24T00:42:32.805Z,94.80
2018-12-24T00:44:36.749Z,94.70
2018-12-24T00:46:40.644Z,94.70
2018-12-24T00:48:46.248Z,94.80
2018-12-24T00:50:50.246Z,94.50
2018-12-24T00:52:54.999Z,95.00
2018-12-24T00:54:58.925Z,94.30
2018-12-24T00:57:02.873Z,95.00
2018-12-24T00:59:06.755Z,94.40
2018-12-24T01:01:10.624Z,95.70
2018-12-24T01:03:15.945Z,95.90
2018-12-24T01:05:19.821Z,95.30
2018-12-24T01:07:23.731Z,95.20
2018-12-24T01:09:27.722Z,95.00
2018-12-24T01:11:33.296Z,95.30
2018-12-24T01:13:37.263Z,95.90
2018-12-24T01:15:41.199Z,96.50
2018-12-24T01:17:45.158Z,96.10
2018-12-24T01:19:49.027Z,95.90
2018-12-24T01:21:52.973Z,96.10
2018-12-24T01:23:57.138Z,96.10
2018-12-24T01:26:08.630Z,95.90
2018-12-24T01:28:10.316Z,95.80
2018-12-24T01:30:14.243Z,95.80
2018-12-24T01:32:18.234Z,95.90
2018-12-24T01:34:22.381Z,96.20
2018-12-24T01:36:26.454Z,95.80
2018-12-24T01:38:30.461Z,95.70
2018-12-24T01:40:37.462Z,96.70
2018-12-24T01:42:41.433Z,96.60
2018-12-24T01:44:45.441Z,95.90
2018-12-24T01:46:49.213Z,96.30
2018-12-24T01:48:53.192Z,97.00
2018-12-24T01:50:57.061Z,97.30
2018-12-24T01:53:00.974Z,96.80
2018-12-24T01:55:06.583Z,96.60
2018-12-24T01:57:10.433Z,96.30
2018-12-24T01:59:16.798Z,97.00
2018-12-24T02:01:20.302Z,97.40
2018-12-24T02:03:26.120Z,97.10
2018-12-24T02:05:30.010Z,96.50
2018-12-24T02:07:33.930Z,96.90
2018-12-24T02:09:37.827Z,96.70
2018-12-24T02:11:41.755Z,96.60
2018-12-24T02:13:45.716Z,97.20
2018-12-24T02:15:49.564Z,97.20
2018-12-24T02:17:55.220Z,97.40
2018-12-24T02:19:59.071Z,97.70
2018-12-24T02:22:03.237Z,97.70
2018-12-24T02:24:07.070Z,97.10
2018-12-24T02:26:11.042Z,97.20
2018-12-24T02:28:14.964Z,97.10
2018-12-24T02:30:18.792Z,98.00
2018-12-24T02:32:22.858Z,98.40
2018-12-24T02:34:26.846Z,98.30
2018-12-24T02:36:30.858Z,98.40
2018-12-24T02:38:34.733Z,98.50
2018-12-24T02:40:39.620Z,98.80
2018-12-24T02:42:52.094Z,99.00
2018-12-24T02:44:49.153Z,97.10
2018-12-24T02:46:53.199Z,98.20
2018-12-24T02:48:57.009Z,99.10
2018-12-24T02:51:00.809Z,99.80
2018-12-24T02:53:04.665Z,99.60
2018-12-24T02:55:08.516Z,99.60
2018-12-24T02:57:12.616Z,99.00
2018-12-24T02:59:16.516Z,98.50
2018-12-24T03:01:21.931Z,98.30
2018-12-24T03:03:25.837Z,98.10
2018-12-24T03:05:29.757Z,98.70
2018-12-24T03:07:33.776Z,99.20
2018-12-24T03:09:37.575Z,98.80
2018-12-24T03:11:41.438Z,98.90
2018-12-24T03:13:45.417Z,99.50
2018-12-24T03:15:49.981Z,99.10
2018-12-24T03:17:53.902Z,98.80
2018-12-24T03:19:57.906Z,98.60
2018-12-24T03:22:03.131Z,98.80
2018-12-24T03:24:06.936Z,99.60
2018-12-24T03:26:10.753Z,99.30
2018-12-24T03:28:14.734Z,99.90
2018-12-24T03:30:18.729Z,99.90
2018-12-24T03:32:22.627Z,99.10
2018-12-24T03:34:26.450Z,98.40
2018-12-24T03:36:30.356Z,99.30
2018-12-24T03:38:34.192Z,99.10
2018-12-24T03:40:38.048Z,99.00
2018-12-24T03:42:41.901Z,99.30
2018-12-24T03:44:45.849Z,98.70
2018-12-24T03:46:49.627Z,99.30
2018-12-24T03:48:53.437Z,99.40
2018-12-24T03:50:57.393Z,99.60
2018-12-24T03:53:01.221Z,99.80
2018-12-24T03:55:05.519Z,99.70
2018-12-24T03:57:09.443Z,99.80
2018-12-24T03:59:14.908Z,99.90
2018-12-24T04:01:18.791Z,99.90
2018-12-24T04:03:22.630Z,99.90
2018-12-24T04:05:26.412Z,99.90
2018-12-24T04:07:30.382Z,99.90
2018-12-24T04:09:34.213Z,99.80
2018-12-24T04:11:38.095Z,99.50
2018-12-24T04:13:41.880Z,99.50
2018-12-24T04:15:45.776Z,99.90
2018-12-24T04:17:49.689Z,99.90
2018-12-24T04:19:53.550Z,99.70
2018-12-24T04:22:09.163Z,99.30
2018-12-24T04:24:04.518Z,99.60
2018-12-24T04:26:08.370Z,99.00
2018-12-24T04:28:12.189Z,99.20
2018-12-24T04:30:15.995Z,99.20
2018-12-24T04:32:19.867Z,99.90
2018-12-24T04:34:23.759Z,99.50
2018-12-24T04:36:27.694Z,98.60
2018-12-24T04:38:31.528Z,99.60
2018-12-24T04:40:35.360Z,99.90
2018-12-24T04:42:39.149Z,99.40
2018-12-24T04:44:43.091Z,98.60
2018-12-24T04:46:46.969Z,99.20
2018-12-24T04:48:50.836Z,99.10
2018-12-24T04:50:54.764Z,99.30
2018-12-24T04:52:58.624Z,99.90
2018-12-24T04:55:02.520Z,99.50
2018-12-24T04:57:06.393Z,99.80
2018-12-24T04:59:10.286Z,98.40
2018-12-24T05:01:14.169Z,98.70
2018-12-24T05:03:18.173Z,99.10
2018-12-24T05:05:22.039Z,99.10
2018-12-24T05:07:25.894Z,99.30
2018-12-24T05:09:29.735Z,99.10
2018-12-24T05:11:35.591Z,98.80
2018-12-24T05:13:40.983Z,98.70
2018-12-24T05:15:44.700Z,98.10
2018-12-24T05:17:48.531Z,98.20
2018-12-24T05:19:52.609Z,97.80
2018-12-24T05:21:56.529Z,99.90
2018-12-24T05:24:00.338Z,99.20
2018-12-24T05:26:04.152Z,99.90
2018-12-24T05:28:07.966Z,99.70
2018-12-24T05:30:11.903Z,99.00
2018-12-24T05:32:15.825Z,99.50
2018-12-24T05:34:19.630Z,99.50
2018-12-24T05:36:23.456Z,99.10
2018-12-24T05:38:27.243Z,98.70
2018-12-24T05:40:32.620Z,99.30
2018-12-24T05:42:36.427Z,99.20
2018-12-24T05:44:40.231Z,99.40
2018-12-24T05:46:44.059Z,99.50
2018-12-24T05:48:49.370Z,99.40
2018-12-24T05:50:53.162Z,99.70
2018-12-24T05:52:56.961Z,99.90
2018-12-24T05:55:00.883Z,99.00
2018-12-24T05:57:04.739Z,98.90
2018-12-24T05:59:08.594Z,98.70
2018-12-24T06:01:12.461Z,98.60
2018-12-24T06:03:16.259Z,98.80
2018-12-24T06:05:20.054Z,98.30
2018-12-24T06:07:24.483Z,98.80
2018-12-24T06:09:29.894Z,98.00
2018-12-24T06:11:33.745Z,99.10
2018-12-24T06:13:37.542Z,99.80
2018-12-24T06:15:41.477Z,99.30
2018-12-24T06:17:45.346Z,99.10
2018-12-24T06:19:49.138Z,99.80
2018-12-24T06:21:54.117Z,98.80
2018-12-24T06:23:59.545Z,99.30
2018-12-24T06:26:03.390Z,98.80
2018-12-24T06:28:07.539Z,99.50
2018-12-24T06:30:11.499Z,99.90
2018-12-24T06:32:16.767Z,99.90
2018-12-24T06:34:20.671Z,99.60
2018-12-24T06:36:24.514Z,99.60
2018-12-24T06:38:28.346Z,98.80
2018-12-24T06:40:32.302Z,98.50
2018-12-24T06:42:36.274Z,98.40
2018-12-24T06:44:40.152Z,98.60
2018-12-24T06:46:47.551Z,98.80
2018-12-24T06:48:52.994Z,99.50
2018-12-24T06:50:56.944Z,99.40
2018-12-24T06:53:00.795Z,99.10
2018-12-24T06:55:06.298Z,98.80
2018-12-24T06:57:10.232Z,99.30
2018-12-24T06:59:14.092Z,99.20
2018-12-24T07:01:18.055Z,98.50
2018-12-24T07:03:22.282Z,99.00
2018-12-24T07:05:31.409Z,98.90
2018-12-24T07:07:35.321Z,98.50
2018-12-24T07:09:39.145Z,98.40
2018-12-24T07:11:42.996Z,98.10
2018-12-24T07:13:46.840Z,98.90
2018-12-24T07:15:50.852Z,98.30
2018-12-24T07:17:54.795Z,98.30
2018-12-24T07:19:59.093Z,98.20
2018-12-24T07:22:02.927Z,99.00
2018-12-24T07:24:06.805Z,99.00
2018-12-24T07:26:10.666Z,97.50
2018-12-24T07:28:14.620Z,97.20
2018-12-24T07:30:20.182Z,96.90
2018-12-24T07:32:24.096Z,96.90
2018-12-24T07:34:32.400Z,97.50
2018-12-24T07:36:33.716Z,96.80
2018-12-24T07:38:37.568Z,97.20
2018-12-24T07:40:41.503Z,97.10
2018-12-24T07:42:45.457Z,97.40
2018-12-24T07:44:49.320Z,97.20
2018-12-24T07:47:23.244Z,98.40
2018-12-24T07:49:27.233Z,98.10
2018-12-24T07:51:31.089Z,97.20
2018-12-24T07:53:35.342Z,96.40
2018-12-24T07:55:40.803Z,96.40
2018-12-24T07:57:44.728Z,95.40
2018-12-24T07:59:48.594Z,95.50
2018-12-24T08:01:52.473Z,96.00
2018-12-24T08:03:58.266Z,96.00
2018-12-24T08:06:01.839Z,95.70
2018-12-24T08:08:05.781Z,95.20
2018-12-24T08:10:09.650Z,94.90
2018-12-24T08:12:13.538Z,94.80
2018-12-24T08:14:17.471Z,94.30
2018-12-24T08:16:21.437Z,95.60
2018-12-24T08:18:25.265Z,95.30
2018-12-24T08:20:29.224Z,94.40
2018-12-24T08:22:33.048Z,94.00
2018-12-24T08:24:36.864Z,93.40
2018-12-24T08:26:40.873Z,93.90
2018-12-24T08:28:44.862Z,93.50
2018-12-24T08:30:48.720Z,93.80
2018-12-24T08:32:54.334Z,93.80
2018-12-24T08:34:58.202Z,94.90
2018-12-24T08:37:02.000Z,96.00
2018-12-24T08:39:06.994Z,95.90
2018-12-24T08:41:11.366Z,96.40
2018-12-24T08:45:40.568Z,97.70
2018-12-24T08:47:44.503Z,97.70
2018-12-24T08:50:18.483Z,97.80
2018-12-24T08:52:22.355Z,98.80
2018-12-24T08:54:26.403Z,97.80
2018-12-24T08:56:30.302Z,98.70
2018-12-24T08:58:43.908Z,98.20
2018-12-24T09:00:47.734Z,97.80
2018-12-24T09:02:51.538Z,98.10
2018-12-24T09:04:55.473Z,97.40
2018-12-24T09:06:59.431Z,96.90
2018-12-24T09:09:05.067Z,96.30
2018-12-24T09:11:09.509Z,95.40
2018-12-24T09:13:13.391Z,96.30
2018-12-24T09:15:17.293Z,96.30
2018-12-24T09:17:21.235Z,95.70
2018-12-24T09:19:25.125Z,96.30
2018-12-24T09:21:29.090Z,96.00
2018-12-24T09:23:33.003Z,96.00
2018-12-24T09:25:38.228Z,95.40
2018-12-24T09:27:42.087Z,95.30
2018-12-24T09:29:45.965Z,95.90
2018-12-24T09:31:50.228Z,95.50
2018-12-24T09:33:56.532Z,94.90
2018-12-24T09:36:00.649Z,93.90
2018-12-24T09:38:06.245Z,93.60
2018-12-24T09:40:12.425Z,92.20
2018-12-24T09:42:16.444Z,94.20
2018-12-24T09:44:20.372Z,94.30
2018-12-24T09:46:24.483Z,94.40
2018-12-24T09:48:39.250Z,94.00
2018-12-24T09:50:43.221Z,94.60
2018-12-24T09:52:48.195Z,95.30
2018-12-24T09:54:52.002Z,95.60
2018-12-24T09:56:55.926Z,96.20
2018-12-24T09:58:59.969Z,96.10
2018-12-24T10:01:03.943Z,96.50
2018-12-24T10:03:07.915Z,94.80
2018-12-24T10:05:23.414Z,94.60
2018-12-24T10:07:40.370Z,93.60
2018-12-24T10:09:43.450Z,93.70
2018-12-24T10:12:01.554Z,93.50
2018-12-24T10:13:53.197Z,94.60
2018-12-24T10:15:57.136Z,95.30
2018-12-24T10:18:01.039Z,94.70
2018-12-24T10:20:05.377Z,93.50
2018-12-24T10:22:09.315Z,93.30
2018-12-24T10:24:13.193Z,93.20
2018-12-24T10:26:20.206Z,95.40
2018-12-24T10:28:24.187Z,94.60
2018-12-24T10:30:34.036Z,95.50
2018-12-24T10:32:37.928Z,95.80
2018-12-24T10:34:42.003Z,96.80
2018-12-24T10:36:45.926Z,96.00
2018-12-24T10:38:49.866Z,94.50
2018-12-24T10:40:54.813Z,94.10
2018-12-24T10:42:58.877Z,94.00
2018-12-24T10:45:02.838Z,94.90
2018-12-24T10:47:06.997Z,94.60
2018-12-24T10:49:12.885Z,93.80
2018-12-24T10:51:16.729Z,93.30
2018-12-24T10:53:21.050Z,93.30
2018-12-24T10:55:24.923Z,93.50
2018-12-24T10:57:28.855Z,95.10
2018-12-24T10:59:32.812Z,95.80
2018-12-24T11:01:36.881Z,95.40
2018-12-24T11:03:55.273Z,93.80
2018-12-24T11:05:46.692Z,93.90
2018-12-24T11:07:50.572Z,93.50
2018-12-24T11:09:54.609Z,93.30
2018-12-24T11:11:59.385Z,93.10
2018-12-24T11:14:03.320Z,92.10
2018-12-24T11:16:07.246Z,92.50
2018-12-24T11:18:13.064Z,92.40
2018-12-24T11:20:18.525Z,92.70
2018-12-24T11:22:24.387Z,92.90
2018-12-24T11:24:28.619Z,91.90
2018-12-24T11:26:32.583Z,90.70
2018-12-24T11:28:36.787Z,90.80
2018-12-24T11:30:40.771Z,90.10
2018-12-24T11:32:44.954Z,90.80
2018-12-24T11:34:48.937Z,90.80
2018-12-24T11:36:52.828Z,91.30
2018-12-24T11:38:56.678Z,90.80
2018-12-24T11:41:02.178Z,90.50
2018-12-24T11:43:06.060Z,91.30
2018-12-24T11:45:09.964Z,93.70
2018-12-24T11:47:13.890Z,93.30
2018-12-24T11:49:17.909Z,92.60
2018-12-24T11:51:21.723Z,92.50
2018-12-24T11:53:25.656Z,92.40
2018-12-24T11:55:29.620Z,93.00
2018-12-24T11:57:34.629Z,93.50
2018-12-24T11:59:38.542Z,92.30
2018-12-24T12:01:42.527Z,90.90
2018-12-24T12:03:46.405Z,91.90
2018-12-24T12:05:50.373Z,94.00
2018-12-24T12:07:54.472Z,94.00
2018-12-24T12:09:58.696Z,93.30
2018-12-24T12:12:02.624Z,92.20
2018-12-24T12:14:06.589Z,90.80
2018-12-24T12:16:12.120Z,91.60
2018-12-24T12:18:16.091Z,91.90
2018-12-24T12:20:19.988Z,91.20
2018-12-24T12:22:23.780Z,91.10
2018-12-24T12:24:27.648Z,91.60
2018-12-24T12:26:31.569Z,92.40
2018-12-24T12:28:35.590Z,92.60
2018-12-24T12:30:39.527Z,91.90
2018-12-24T12:32:43.484Z,91.20
2018-12-24T12:34:47.420Z,91.20
2018-12-24T12:36:51.613Z,91.00
2018-12-24T12:38:56.629Z,91.20
2018-12-24T12:41:00.749Z,90.50
2018-12-24T12:43:04.638Z,90.30
2018-12-24T12:45:08.686Z,91.20
2018-12-24T12:47:12.591Z,90.50
2018-12-24T12:54:43.230Z,88.80
2018-12-24T12:56:47.244Z,89.10
2018-12-24T12:58:53.232Z,89.10
2018-12-24T13:00:57.136Z,89.60
2018-12-24T13:03:01.831Z,89.10
2018-12-24T13:05:05.633Z,89.90
2018-12-24T13:07:09.526Z,90.50
2018-12-24T13:09:13.629Z,90.50
2018-12-24T13:11:17.538Z,90.90
2018-12-24T13:13:21.399Z,91.00
2018-12-24T13:15:25.212Z,90.90
2018-12-24T13:17:32.077Z,91.30
2018-12-24T13:19:36.121Z,90.70
2018-12-24T13:21:41.897Z,91.30
2018-12-24T13:23:45.556Z,91.30
2018-12-24T13:25:49.389Z,93.10
2018-12-24T13:27:53.359Z,94.00
2018-12-24T13:29:57.342Z,92.90
2018-12-24T13:32:04.885Z,93.00
2018-12-24T13:34:08.831Z,92.60
2018-12-24T13:36:12.771Z,92.40
2018-12-24T13:38:17.205Z,92.60
2018-12-24T13:40:21.104Z,91.60
2018-12-24T13:42:25.099Z,91.80
2018-12-24T13:44:28.902Z,92.40
2018-12-24T13:46:35.318Z,93.00
2018-12-24T13:49:29.252Z,95.20
2018-12-24T13:51:33.002Z,94.10
2018-12-24T13:53:41.862Z,95.70
2018-12-24T13:55:42.273Z,95.20
2018-12-24T13:57:47.603Z,94.90
2018-12-24T13:59:53.665Z,93.60
2018-12-24T14:01:57.439Z,92.90
2018-12-24T14:04:02.934Z,94.00
2018-12-24T14:06:08.130Z,94.20
2018-12-24T14:08:12.131Z,92.90
2018-12-24T14:10:19.189Z,92.20
2018-12-24T14:12:22.976Z,92.10
2018-12-24T14:14:26.795Z,91.90
2018-12-24T14:16:30.706Z,93.50
2018-12-24T14:18:34.481Z,94.80
2018-12-24T14:20:41.224Z,93.40
2018-12-24T14:22:46.567Z,95.00
2018-12-24T14:24:50.399Z,94.30
2018-12-24T14:26:57.244Z,93.50
2018-12-24T14:29:01.071Z,92.80
2018-12-24T14:31:06.341Z,92.70
2018-12-24T14:33:12.827Z,92.10
2018-12-24T14:35:16.861Z,94.00
2018-12-24T14:37:22.216Z,93.90
2018-12-24T14:39:29.104Z,92.60
2018-12-24T14:41:32.906Z,92.20
2018-12-24T14:43:36.844Z,91.50
2018-12-24T14:45:43.529Z,90.40
2018-12-24T14:47:47.278Z,91.20
2018-12-24T14:49:51.074Z,90.40
2018-12-24T14:51:57.826Z,90.60
2018-12-24T14:54:01.954Z,92.00
2018-12-24T14:56:05.702Z,92.00
2018-12-24T14:58:09.808Z,93.10
2018-12-24T15:00:13.659Z,92.00
2018-12-24T15:02:17.469Z,92.70
2018-12-24T15:04:21.360Z,92.70
2018-12-24T15:06:25.336Z,92.30
2018-12-24T15:08:30.717Z,92.10
2018-12-24T15:10:37.554Z,91.20
2018-12-24T15:12:41.381Z,90.90
2018-12-24T15:14:49.269Z,90.30
2018-12-24T15:16:53.132Z,89.20
2018-12-24T15:18:59.718Z,89.60
2018-12-24T15:21:03.410Z,89.60
2018-12-24T15:23:07.182Z,88.70
2018-12-24T15:25:11.019Z,88.70
2018-12-24T15:27:14.834Z,89.20
2018-12-24T15:29:18.751Z,88.80
2018-12-24T15:31:23.819Z,87.10
2018-12-24T15:33:31.033Z,88.80
2018-12-24T15:35:34.897Z,89.40
2018-12-24T15:37:38.750Z,90.30
2018-12-24T15:39:42.585Z,91.90
2018-12-24T15:41:46.383Z,94.10
2018-12-24T15:43:50.154Z,94.00
2018-12-24T15:45:56.357Z,94.10
2018-12-24T15:48:00.157Z,93.90
2018-12-24T15:50:03.965Z,93.50
2018-12-24T15:52:07.866Z,92.70
2018-12-24T15:54:15.369Z,91.70
2018-12-24T15:56:19.182Z,91.20
2018-12-24T15:58:25.835Z,91.10
2018-12-24T16:05:55.714Z,91.50
2018-12-24T16:08:01.239Z,91.90
2018-12-24T16:10:05.165Z,91.50
2018-12-24T16:12:10.814Z,91.40
2018-12-24T16:14:15.132Z,91.70
2018-12-24T16:16:20.107Z,91.90
2018-12-24T16:18:24.198Z,91.00
2018-12-24T16:20:28.523Z,91.70
2018-12-24T16:22:32.668Z,92.20
2018-12-24T16:24:36.827Z,92.30
2018-12-24T16:26:42.649Z,92.30
2018-12-24T16:28:46.488Z,92.00
2018-12-24T16:30:50.318Z,92.20
2018-12-24T16:33:07.066Z,91.90
2018-12-24T16:35:09.238Z,91.50
2018-12-24T16:37:18.616Z,90.90
2018-12-24T16:39:28.889Z,90.80
2018-12-24T16:42:03.954Z,90.40
2018-12-24T16:43:46.803Z,90.20
2018-12-24T16:45:51.106Z,90.10
2018-12-24T16:47:57.962Z,89.40
2018-12-24T16:50:05.548Z,89.60
2018-12-24T16:52:09.433Z,89.30
2018-12-24T16:54:20.872Z,89.20
2018-12-24T16:56:29.301Z,88.70
2018-12-24T16:58:34.828Z,89.30
2018-12-24T17:00:41.718Z,89.20
2018-12-24T17:02:48.829Z,88.30
2018-12-24T17:04:55.767Z,89.00
2018-12-24T17:07:03.015Z,88.70
2018-12-24T17:09:11.995Z,88.40
2018-12-24T17:11:14.548Z,89.30
2018-12-24T17:15:45.339Z,89.20
2018-12-24T17:17:49.902Z,89.80
2018-12-24T17:20:10.698Z,90.10
2018-12-24T17:22:07.342Z,90.20
2018-12-24T17:24:19.756Z,90.10
2018-12-24T17:26:39.447Z,89.80
2018-12-24T17:28:47.479Z,89.70
2018-12-24T17:30:51.463Z,90.00
2018-12-24T17:33:32.055Z,90.20
2018-12-24T17:35:07.351Z,89.80
2018-12-24T17:37:17.059Z,89.30
2018-12-24T17:39:23.195Z,89.00
2018-12-24T17:41:27.051Z,90.50
2018-12-24T17:43:34.074Z,91.00
2018-12-24T17:45:41.588Z,91.90
2018-12-24T17:47:52.164Z,90.80
2018-12-24T17:50:01.164Z,90.70
2018-12-24T17:52:05.521Z,90.20
2018-12-24T17:54:09.324Z,89.10
2018-12-24T17:56:25.526Z,89.40
2018-12-24T18:00:53.314Z,88.70
2018-12-24T18:02:57.176Z,88.10
2018-12-24T18:05:08.460Z,87.50
2018-12-24T18:07:14.065Z,87.90
2018-12-24T18:11:57.137Z,87.60
2018-12-24T18:14:01.184Z,86.90
2018-12-24T18:16:12.208Z,87.40
2018-12-24T18:18:23.824Z,87.90
2018-12-24T18:20:30.682Z,88.10
2018-12-24T18:22:47.908Z,87.80
2018-12-24T18:24:47.312Z,86.40
2018-12-24T18:26:51.039Z,85.70
2018-12-24T18:28:54.968Z,84.90
2018-12-24T18:30:58.879Z,85.20
2018-12-24T18:33:02.742Z,84.90
2018-12-24T18:35:37.126Z,86.10
2018-12-24T18:37:43.271Z,86.10
2018-12-24T18:39:47.210Z,85.80
2018-12-24T18:41:51.512Z,87.00
2018-12-24T18:43:58.297Z,87.50
2018-12-24T18:46:05.239Z,87.20
2018-12-24T18:48:15.594Z,88.50
2018-12-24T18:50:20.571Z,88.80
2018-12-24T18:52:35.537Z,88.80
2018-12-24T18:54:39.780Z,90.10
2018-12-24T18:56:46.114Z,89.50
2018-12-24T18:58:51.416Z,88.40
2018-12-24T19:01:00.113Z,87.80
2018-12-24T19:03:06.997Z,86.50
2018-12-24T19:05:10.790Z,87.70
2018-12-24T19:07:17.918Z,87.30
2018-12-24T19:09:21.947Z,87.40
2018-12-24T19:11:28.695Z,87.90
2018-12-24T19:13:32.665Z,87.80
2018-12-24T19:15:36.609Z,87.50
2018-12-24T19:17:41.602Z,85.70
2018-12-24T19:19:45.631Z,85.50
2018-12-24T19:21:59.141Z,84.70
2018-12-24T19:24:00.280Z,84.60
2018-12-24T19:26:04.114Z,84.70
2018-12-24T19:28:08.126Z,85.40
2018-12-24T19:30:11.974Z,85.20
2018-12-24T19:32:15.768Z,84.80
2018-12-24T19:34:28.695Z,84.70
2018-12-24T19:36:32.588Z,84.60
2018-12-24T19:38:36.428Z,84.70
2018-12-24T19:40:40.296Z,86.30
2018-12-24T19:42:47.424Z,86.90
2018-12-24T19:44:54.457Z,86.90
2018-12-24T19:46:58.451Z,86.90
2018-12-24T19:49:03.434Z,87.00
2018-12-24T19:51:10.542Z,86.70
2018-12-24T19:53:18.087Z,86.10
2018-12-24T19:55:24.985Z,85.90
2018-12-24T19:57:28.830Z,87.60
2018-12-24T19:59:32.732Z,86.90
2018-12-24T20:01:50.435Z,86.80
2018-12-24T20:03:54.599Z,87.20
2018-12-24T20:05:58.630Z,86.90
2018-12-24T20:08:05.311Z,86.90
2018-12-24T20:10:12.369Z,87.50
2018-12-24T20:12:16.453Z,86.60
2018-12-24T20:14:20.510Z,86.20
2018-12-24T20:16:24.871Z,85.60
2018-12-24T20:18:36.728Z,85.50
2018-12-24T20:20:36.378Z,85.40
2018-12-24T20:22:44.790Z,85.30
2018-12-24T20:24:49.001Z,85.00
2018-12-24T20:27:01.923Z,84.90
2018-12-24T20:29:07.647Z,84.90
2018-12-24T20:31:11.882Z,85.40
2018-12-24T20:33:20.800Z,85.20
2018-12-24T20:35:31.291Z,85.00
2018-12-24T20:37:33.010Z,85.00
2018-12-24T20:39:36.870Z,84.50
2018-12-24T20:41:40.827Z,84.50
2018-12-24T20:43:44.819Z,84.00
2018-12-24T20:45:48.733Z,84.60
2018-12-24T20:47:52.567Z,83.30
2018-12-24T20:50:01.501Z,84.60
2018-12-24T20:52:06.179Z,85.20
2018-12-24T20:54:10.173Z,84.60
2018-12-24T20:56:14.194Z,84.50
2018-12-24T20:58:18.099Z,85.30
2018-12-24T21:00:22.420Z,84.50
2018-12-24T21:02:26.635Z,84.60
2018-12-24T21:04:31.981Z,84.50
2018-12-24T21:06:35.870Z,84.50
2018-12-24T21:08:49.433Z,84.50
2018-12-24T21:10:54.045Z,84.80
2018-12-24T21:13:09.856Z,84.70
2018-12-24T21:15:13.691Z,84.50
2018-12-24T21:17:23.633Z,84.50
2018-12-24T21:19:34.920Z,84.50
2018-12-24T21:21:41.649Z,84.00
2018-12-24T21:23:45.483Z,83.80
2018-12-24T21:26:17.091Z,83.20
2018-12-24T21:28:20.884Z,83.30
2018-12-24T21:30:26.552Z,83.40
2018-12-24T21:32:30.747Z,83.10
2018-12-24T21:34:36.100Z,84.00
2018-12-24T21:36:40.021Z,83.20
2018-12-24T21:38:44.011Z,83.60
2018-12-24T21:40:49.511Z,83.30
2018-12-24T21:42:59.485Z,82.90
2018-12-24T21:44:58.862Z,82.30
2018-12-24T21:47:04.062Z,82.40
2018-12-24T21:49:10.145Z,82.20
2018-12-24T21:51:15.043Z,82.80
2018-12-24T21:53:18.972Z,83.30
2018-12-24T21:55:22.853Z,84.30
2018-12-24T21:57:26.898Z,83.70
2018-12-24T21:59:34.865Z,82.40
2018-12-24T22:01:42.288Z,85.10
2018-12-24T22:03:46.356Z,83.70
2018-12-24T22:05:55.537Z,83.70
2018-12-24T22:08:01.014Z,83.40
2018-12-24T22:10:10.174Z,83.80
2018-12-24T22:12:16.679Z,83.90
2018-12-24T22:14:31.618Z,84.40
2018-12-24T22:16:38.222Z,83.50
2018-12-24T22:18:42.027Z,83.40
2018-12-24T22:20:46.203Z,83.80
2018-12-24T22:22:56.710Z,83.50
2018-12-24T22:25:03.973Z,83.70
2018-12-24T22:27:10.526Z,84.20
2018-12-24T22:29:17.631Z,83.60
2018-12-24T22:31:21.614Z,83.30
2018-12-24T22:33:30.425Z,82.90
2018-12-24T22:35:37.371Z,83.40
2018-12-24T22:37:41.493Z,84.20
2018-12-24T22:39:48.342Z,83.80
2018-12-24T22:41:53.964Z,83.80
2018-12-24T22:43:58.146Z,83.40
2018-12-24T22:46:05.114Z,83.90
2018-12-24T22:48:11.820Z,84.70
2018-12-24T22:50:18.542Z,84.90
2018-12-24T22:52:22.824Z,84.50
2018-12-24T22:54:28.933Z,84.60
2018-12-24T22:56:34.847Z,84.50
2018-12-24T22:58:41.677Z,83.80
2018-12-24T23:00:47.992Z,83.60
2018-12-24T23:02:52.103Z,83.70
2018-12-24T23:04:55.922Z,83.90
2018-12-24T23:06:59.810Z,84.20
2018-12-24T23:09:04.622Z,86.10
2018-12-24T23:11:10.236Z,86.40
2018-12-24T23:13:14.147Z,87.80
2018-12-24T23:15:18.626Z,86.70
2018-12-24T23:17:22.962Z,86.70
2018-12-24T23:19:37.868Z,86.00
2018-12-24T23:21:43.426Z,85.10
2018-12-24T23:23:47.403Z,84.10
2018-12-24T23:25:51.290Z,83.40
2018-12-24T23:27:59.596Z,86.10
2018-12-24T23:30:03.514Z,86.00
2018-12-24T23:32:11.436Z,85.30
2018-12-24T23:34:15.490Z,85.00
2018-12-24T23:36:19.671Z,85.00
2018-12-24T23:38:23.937Z,85.30
2018-12-24T23:40:32.031Z,84.30
2018-12-24T23:42:37.342Z,84.80
2018-12-24T23:44:41.748Z,85.10
2018-12-24T23:46:45.530Z,85.50
2018-12-24T23:48:57.529Z,85.00
2018-12-24T23:51:01.499Z,83.50
2018-12-24T23:53:08.242Z,83.90
2018-12-24T23:55:15.070Z,84.80
2018-12-24T23:57:24.738Z,84.80
2018-12-24T23:59:31.672Z,84.90
